Time;durP1;ratioP1;P1;durP2;ratioP2;P2;SDS_P1;SDS_P2;PMS_P1;PMS_P2;Temp;Humidity;BMP_temperature;BMP_pressure;BME280_temperature;BME280_humidity;BME280_pressure;Samples;Min_cycle;Max_cycle;Signal;HPM_P1;HPM_P2
2022/06/30 00:00:19;;;;;;;12.65;5.57;;;589.70;2432.00;;;;;;6246394;23;20099;-83
2022/06/30 00:02:45;;;;;;;8.77;5.47;;;589.60;2432.00;;;;;;6246332;23;20674;-86
2022/06/30 00:05:11;;;;;;;11.82;5.32;;;589.60;2432.00;;;;;;6246739;23;20004;-83
2022/06/30 00:07:37;;;;;;;12.48;5.72;;;589.70;2432.00;;;;;;6247021;23;20084;-84
2022/06/30 00:10:03;;;;;;;8.23;5.55;;;614.60;2432.00;;;;;;6246276;23;20004;-84
2022/06/30 00:12:30;;;;;;;9.32;4.97;;;589.60;2432.00;;;;;;6246224;23;20000;-85
2022/06/30 00:14:56;;;;;;;7.35;4.50;;;589.50;2432.00;;;;;;6245725;23;20007;-85
2022/06/30 00:17:22;;;;;;;10.95;5.53;;;589.60;2432.00;;;;;;6246491;23;20433;-87
2022/06/30 00:19:48;;;;;;;6.63;4.93;;;589.70;2432.00;;;;;;6245988;23;20019;-84
2022/06/30 00:22:15;;;;;;;8.05;5.72;;;589.50;2432.00;;;;;;6245789;23;20019;-85
2022/06/30 00:24:41;;;;;;;7.20;5.60;;;589.50;2432.00;;;;;;6246305;23;20004;-85
2022/06/30 00:27:07;;;;;;;7.25;4.75;;;589.40;2432.00;;;;;;6246165;23;20079;-83
2022/06/30 00:29:33;;;;;;;11.38;5.70;;;589.40;2432.00;;;;;;6246011;23;20092;-83
2022/06/30 00:32:00;;;;;;;6.72;4.70;;;589.70;2432.00;;;;;;6246096;23;20004;-85
2022/06/30 00:34:26;;;;;;;12.93;4.45;;;589.40;2432.00;;;;;;6246159;23;20008;-83
2022/06/30 00:36:52;;;;;;;8.88;5.22;;;589.60;2432.00;;;;;;6245790;23;20414;-85
2022/06/30 00:39:18;;;;;;;9.25;5.22;;;589.50;2432.00;;;;;;6246048;23;20091;-85
2022/06/30 00:41:44;;;;;;;12.45;4.65;;;589.50;2432.00;;;;;;6246028;23;20011;-84
2022/06/30 00:44:14;;;;;;;7.60;4.97;;;589.70;2432.00;;;;;;6245936;23;20008;-84
2022/06/30 00:46:40;;;;;;;11.43;5.60;;;589.50;2432.00;;;;;;6246105;23;20000;-84
2022/06/30 00:49:07;;;;;;;8.88;6.18;;;589.20;2432.00;;;;;;6254155;23;20000;-82
2022/06/30 00:51:34;;;;;;;9.15;5.93;;;589.00;2432.00;;;;;;6264666;23;20067;-81
2022/06/30 00:54:03;;;;;;;13.02;6.35;;;588.80;2432.00;;;;;;6254348;23;20046;-85
2022/06/30 00:56:30;;;;;;;11.77;6.38;;;;;;;;;;6246242;23;20015;-87
2022/06/30 00:58:58;;;;;;;12.05;7.00;;;;;;;;;;6245913;23;20090;-86
2022/06/30 01:01:25;;;;;;;10.38;5.57;;;;;;;;;;6245935;23;20437;-85
2022/06/30 01:03:53;;;;;;;6.72;4.72;;;589.30;2432.00;;;;;;6245885;23;20000;-84
2022/06/30 01:06:20;;;;;;;7.25;5.00;;;589.30;2432.00;;;;;;6245979;23;20000;-86
2022/06/30 01:08:46;;;;;;;6.28;4.78;;;;;;;;;;6246226;23;20011;-85
2022/06/30 01:13:57;;;;;;;7.63;4.95;;;589.20;2432.00;;;;;;6247400;23;20042;-86
2022/06/30 01:16:23;;;;;;;7.72;5.03;;;589.00;2432.00;;;;;;6245721;23;20000;-86
2022/06/30 01:18:50;;;;;;;9.32;4.85;;;;;;;;;;6245247;23;20016;-84
2022/06/30 01:21:17;;;;;;;9.43;4.55;;;589.30;2432.00;;;;;;6245983;23;20004;-84
2022/06/30 01:23:43;;;;;;;7.68;4.72;;;589.00;2432.00;;;;;;6245822;23;20014;-84
2022/06/30 01:26:09;;;;;;;11.73;5.57;;;588.90;2432.00;;;;;;6245558;23;20050;-85
2022/06/30 01:28:36;;;;;;;13.25;7.82;;;564.00;2432.00;;;;;;6249542;23;20029;-83
2022/06/30 01:31:02;;;;;;;12.27;7.47;;;563.90;2432.00;;;;;;6252113;23;20028;-85
2022/06/30 01:33:28;;;;;;;10.13;6.68;;;564.10;2432.00;;;;;;6247223;23;20456;-84
2022/06/30 01:35:57;;;;;;;8.05;6.20;;;563.80;2432.00;;;;;;6245601;23;20064;-84
2022/06/30 01:38:24;;;;;;;8.32;6.28;;;563.90;2432.00;;;;;;6245725;23;20170;-85
2022/06/30 01:40:50;;;;;;;9.57;6.10;;;564.10;2432.00;;;;;;6245513;23;20074;-86
2022/06/30 01:43:16;;;;;;;8.43;5.55;;;564.10;2432.00;;;;;;6245640;23;20004;-85
2022/06/30 01:45:42;;;;;;;7.07;5.40;;;564.10;2432.00;;;;;;6245881;23;20034;-87
2022/06/30 01:48:09;;;;;;;6.38;4.95;;;564.10;2432.00;;;;;;6245610;23;20000;-84
2022/06/30 01:50:36;;;;;;;7.90;4.60;;;563.90;2432.00;;;;;;6245895;23;20433;-84
2022/06/30 01:53:03;;;;;;;8.35;5.00;;;563.70;2432.00;;;;;;6245302;23;20031;-83
2022/06/30 01:55:30;;;;;;;9.52;5.15;;;563.90;2432.00;;;;;;6245623;23;20015;-85
2022/06/30 01:57:57;;;;;;;11.32;5.35;;;563.80;2432.00;;;;;;6245808;23;20413;-85
2022/06/30 02:00:25;;;;;;;5.88;4.82;;;563.70;2432.00;;;;;;6245331;23;20430;-84
2022/06/30 02:02:53;;;;;;;6.93;5.10;;;563.50;2432.00;;;;;;6245410;23;20134;-84
2022/06/30 02:05:20;;;;;;;10.93;6.97;;;563.60;2432.00;;;;;;6245800;23;20008;-84
2022/06/30 02:07:46;;;;;;;8.85;5.97;;;563.50;2432.00;;;;;;6245255;23;20085;-85
2022/06/30 02:10:19;;;;;;;8.68;5.40;;;563.60;2432.00;;;;;;6245719;23;20058;-83
2022/06/30 02:12:45;;;;;;;10.15;5.72;;;563.60;2432.00;;;;;;6245606;23;20004;-84
2022/06/30 02:15:20;;;;;;;8.43;5.28;;;563.60;2432.00;;;;;;6244998;23;20083;-84
2022/06/30 02:17:49;;;;;;;6.30;4.55;;;563.60;2432.00;;;;;;6245642;23;20066;-85
2022/06/30 02:20:20;;;;;;;9.35;4.70;;;563.60;2432.00;;;;;;6245410;23;20023;-85
2022/06/30 02:22:48;;;;;;;7.28;5.50;;;563.50;2432.00;;;;;;6245207;23;20015;-84
2022/06/30 02:25:14;;;;;;;8.60;5.10;;;563.40;2432.00;;;;;;6245590;23;20337;-83
2022/06/30 02:27:40;;;;;;;7.15;4.90;;;563.60;2432.00;;;;;;6245058;23;19997;-85
2022/06/30 02:30:07;;;;;;;8.30;5.15;;;563.20;2432.00;;;;;;6248636;23;20366;-83
2022/06/30 02:32:33;;;;;;;6.68;4.90;;;563.30;2432.00;;;;;;6254287;23;20497;-85
2022/06/30 02:34:59;;;;;;;7.35;5.35;;;538.40;2406.40;;;;;;6255781;23;20011;-84
2022/06/30 02:37:25;;;;;;;7.82;4.97;;;538.40;2406.40;;;;;;6256247;23;20004;-82
2022/06/30 02:39:51;;;;;;;8.15;5.50;;;538.50;2406.40;;;;;;6256567;23;20004;-82
2022/06/30 02:42:18;;;;;;;8.43;5.22;;;538.50;2406.40;;;;;;6256018;23;20051;-85
2022/06/30 02:44:44;;;;;;;8.38;5.88;;;538.40;2406.40;;;;;;6255396;23;20067;-83
2022/06/30 02:47:10;;;;;;;9.02;5.40;;;538.50;2406.40;;;;;;6255964;23;20007;-82
2022/06/30 02:49:37;;;;;;;11.80;5.60;;;538.50;2406.40;;;;;;6256847;23;20244;-82
2022/06/30 02:52:04;;;;;;;9.95;5.10;;;538.30;2406.40;;;;;;6257707;23;20008;-82
2022/06/30 02:54:30;;;;;;;8.18;5.05;;;538.40;2406.40;;;;;;6257708;23;20004;-82
2022/06/30 02:56:55;;;;;;;7.95;5.45;;;538.50;2406.40;;;;;;6257111;23;20004;-82
2022/06/30 02:59:21;;;;;;;10.82;5.43;;;563.20;2432.00;;;;;;6253796;23;20019;-83
2022/06/30 03:01:47;;;;;;;6.03;5.07;;;538.50;2406.40;;;;;;6246410;23;20004;-82
2022/06/30 03:04:13;;;;;;;8.25;5.50;;;538.40;2406.40;;;;;;6246056;23;20004;-83
2022/06/30 03:06:39;;;;;;;12.85;5.68;;;538.20;2406.40;;;;;;6247508;23;20307;-82
2022/06/30 03:09:05;;;;;;;13.95;5.60;;;538.00;2406.40;;;;;;6247868;23;20011;-82
2022/06/30 03:11:32;;;;;;;9.45;6.40;;;538.20;2406.40;;;;;;6247560;23;20004;-84
2022/06/30 03:13:57;;;;;;;8.73;5.78;;;537.80;2406.40;;;;;;6247738;23;20015;-84
2022/06/30 03:16:23;;;;;;;9.05;6.68;;;537.80;2406.40;;;;;;6247723;23;20196;-83
2022/06/30 03:18:50;;;;;;;8.93;6.00;;;537.70;2406.40;;;;;;6246362;23;20019;-82
2022/06/30 03:21:16;;;;;;;7.88;5.82;;;537.90;2406.40;;;;;;6247217;23;20012;-83
2022/06/30 03:23:42;;;;;;;9.10;5.28;;;537.90;2406.40;;;;;;6247273;23;20027;-82
2022/06/30 03:26:07;;;;;;;10.90;5.70;;;537.90;2406.40;;;;;;6247212;23;20004;-84
2022/06/30 03:28:33;;;;;;;11.80;5.20;;;537.80;2406.40;;;;;;6247217;23;20007;-83
2022/06/30 03:30:59;;;;;;;11.30;6.38;;;537.90;2406.40;;;;;;6247106;23;20439;-83
2022/06/30 03:33:26;;;;;;;8.90;5.78;;;537.90;2406.40;;;;;;6247532;23;20004;-83
2022/06/30 03:35:52;;;;;;;11.85;6.32;;;537.80;2406.40;;;;;;6247314;23;20007;-81
2022/06/30 03:38:18;;;;;;;10.57;5.32;;;538.00;2406.40;;;;;;6247036;23;20043;-83
2022/06/30 03:40:44;;;;;;;8.30;5.95;;;538.00;2406.40;;;;;;6246942;23;20009;-83
2022/06/30 03:43:10;;;;;;;7.47;5.32;;;538.00;2406.40;;;;;;6246862;23;20011;-83
2022/06/30 03:45:36;;;;;;;7.13;5.50;;;538.00;2406.40;;;;;;6246918;23;20004;-85
2022/06/30 03:48:04;;;;;;;10.25;5.90;;;537.80;2406.40;;;;;;6247289;23;20004;-81
2022/06/30 03:50:31;;;;;;;10.20;6.00;;;537.80;2406.40;;;;;;6247177;23;20079;-84
2022/06/30 03:52:57;;;;;;;8.68;6.07;;;537.70;2406.40;;;;;;6247080;23;20493;-82
2022/06/30 03:55:24;;;;;;;8.43;6.80;;;512.80;2380.80;;;;;;6248289;23;20421;-82
2022/06/30 03:57:50;;;;;;;13.18;6.82;;;537.90;2406.40;;;;;;6248100;23;20005;-83
2022/06/30 04:00:17;;;;;;;12.18;6.05;;;538.00;2406.40;;;;;;6248059;23;20008;-82
2022/06/30 04:02:43;;;;;;;12.40;7.05;;;538.10;2406.40;;;;;;6247770;23;20007;-81
2022/06/30 04:05:09;;;;;;;11.20;5.72;;;537.80;2406.40;;;;;;6248132;23;20472;-82
2022/06/30 04:07:43;;;;;;;10.68;5.72;;;537.80;2406.40;;;;;;6247842;23;20000;-83
2022/06/30 04:10:10;;;;;;;11.82;6.32;;;537.90;2406.40;;;;;;6246785;23;20035;-82
2022/06/30 04:12:36;;;;;;;16.20;6.55;;;537.90;2406.40;;;;;;6246514;23;20008;-82
2022/06/30 04:15:03;;;;;;;12.50;6.35;;;537.60;2406.40;;;;;;6246333;23;20142;-83
2022/06/30 04:17:29;;;;;;;11.10;5.75;;;486.50;2380.80;;;;;;6246604;23;20004;-82
2022/06/30 04:19:55;;;;;;;13.25;6.10;;;538.00;2406.40;;;;;;6246583;23;20147;-82
2022/06/30 04:22:21;;;;;;;13.05;6.65;;;538.20;2406.40;;;;;;6246723;23;20008;-84
2022/06/30 04:24:47;;;;;;;13.75;6.82;;;538.00;2406.40;;;;;;6246638;23;20330;-81
2022/06/30 04:27:13;;;;;;;13.10;6.03;;;537.80;2406.40;;;;;;6246813;23;20000;-83
2022/06/30 04:29:39;;;;;;;9.98;6.70;;;538.00;2406.40;;;;;;6246830;23;20000;-82
2022/06/30 04:34:49;;;;;;;14.88;6.65;;;538.10;2406.40;;;;;;6248090;23;20011;-82
2022/06/30 04:37:16;;;;;;;18.10;9.75;;;538.20;2406.40;;;;;;6251394;23;20008;-80
2022/06/30 04:39:42;;;;;;;15.43;6.55;;;538.10;2406.40;;;;;;6252849;23;20004;-81
2022/06/30 04:42:08;;;;;;;12.75;6.63;;;538.20;2406.40;;;;;;6247921;23;20095;-82
2022/06/30 04:44:34;;;;;;;12.68;6.30;;;538.10;2406.40;;;;;;6246602;23;20004;-83
2022/06/30 04:47:00;;;;;;;11.23;5.45;;;538.30;2406.40;;;;;;6246389;23;20433;-83
2022/06/30 04:49:26;;;;;;;10.32;6.07;;;538.30;2406.40;;;;;;6246278;23;20079;-85
2022/06/30 04:51:52;;;;;;;14.73;5.95;;;538.40;2406.40;;;;;;6246806;23;20004;-82
2022/06/30 04:54:18;;;;;;;11.15;6.13;;;563.20;2432.00;;;;;;6246331;23;20009;-83
2022/06/30 04:56:44;;;;;;;15.10;6.22;;;538.50;2406.40;;;;;;6245889;23;20090;-84
2022/06/30 04:59:11;;;;;;;16.65;6.22;;;538.50;2406.40;;;;;;6246208;23;20004;-83
2022/06/30 05:01:37;;;;;;;11.52;6.30;;;538.40;2406.40;;;;;;6245721;23;20384;-83
2022/06/30 05:04:03;;;;;;;10.90;6.18;;;563.40;2432.00;;;;;;6245742;23;20007;-82
2022/06/30 05:06:29;;;;;;;8.55;6.40;;;563.20;2432.00;;;;;;6246245;23;20000;-82
2022/06/30 05:09:05;;;;;;;9.73;6.25;;;563.40;2432.00;;;;;;6245690;23;20069;-84
2022/06/30 05:11:31;;;;;;;15.25;6.40;;;563.40;2432.00;;;;;;6245132;23;20062;-82
2022/06/30 05:13:58;;;;;;;19.58;6.80;;;563.50;2432.00;;;;;;6246103;23;20334;-83
2022/06/30 05:16:24;;;;;;;12.02;6.70;;;563.50;2432.00;;;;;;6247536;23;20127;-82
2022/06/30 05:18:51;;;;;;;9.60;6.30;;;563.50;2432.00;;;;;;6248257;23;20319;-85
2022/06/30 05:21:17;;;;;;;11.80;7.00;;;538.10;2406.40;;;;;;6248418;23;20329;-81
2022/06/30 05:26:28;;;;;;;10.77;6.68;;;563.60;2432.00;;;;;;6245420;23;20303;-82
2022/06/30 05:26:36;;;;;;;9.68;6.65;;;564.10;2432.00;;;;;;6246717;23;20008;-83
2022/06/30 05:29:05;;;;;;;9.82;5.70;;;563.70;2432.00;;;;;;6245794;23;20075;-83
2022/06/30 05:31:31;;;;;;;9.93;5.65;;;538.50;2406.40;;;;;;6245561;23;20004;-82
2022/06/30 05:33:58;;;;;;;13.65;6.20;;;564.00;2432.00;;;;;;6245751;23;20015;-83
2022/06/30 05:36:24;;;;;;;13.60;6.68;;;588.90;2432.00;;;;;;6246081;23;20119;-84
2022/06/30 05:38:53;;;;;;;15.88;7.35;;;588.80;2432.00;;;;;;6246049;23;20026;-82
2022/06/30 05:41:33;;;;;;;20.67;7.28;;;564.10;2432.00;;;;;;6245584;23;20008;-84
2022/06/30 05:44:40;;;;;;;;;;;;;;;;;;;;;
2022/06/30 05:51:12;;;;;;;;;;;;;;;;;;;;;
2022/06/30 05:54:08;;;;;;;11.15;5.75;;;589.20;2432.00;;;;;;6247136;22;20074;-84
2022/06/30 05:57:02;;;;;;;11.77;5.35;;;589.40;2432.00;;;;;;6244731;23;20453;-84
2022/06/30 05:59:48;;;;;;;8.95;5.97;;;589.50;2432.00;;;;;;6253090;23;20004;-84
2022/06/30 06:02:21;;;;;;;10.00;5.90;;;589.70;2432.00;;;;;;6250966;23;20008;-85
2022/06/30 06:11:32;;;;;;;7.05;4.72;;;614.50;2432.00;;;;;;6246443;23;20381;-84
2022/06/30 06:18:01;;;;;;;8.52;5.80;;;614.80;2432.00;;;;;;6123960;23;20336;-84
2022/06/30 06:20:50;;;;;;;10.82;6.93;;;614.80;2432.00;;;;;;6119387;23;20101;-85
2022/06/30 06:23:17;;;;;;;8.98;5.95;;;615.10;2432.00;;;;;;6211835;23;20020;-86
2022/06/30 06:25:43;;;;;;;9.82;5.85;;;615.30;2432.00;;;;;;6245422;23;20012;-86
2022/06/30 06:30:54;;;;;;;15.20;6.65;;;640.10;2432.00;;;;;;6246741;23;20022;-85
2022/06/30 06:33:25;;;;;;;6.70;5.43;;;640.40;2432.00;;;;;;6244954;23;20475;-85
2022/06/30 06:36:21;;;;;;;7.40;5.40;;;640.50;2432.00;;;;;;6244479;23;20444;-84
2022/06/30 06:38:48;;;;;;;11.60;5.32;;;640.50;2432.00;;;;;;6245818;23;20087;-85
2022/06/30 06:41:15;;;;;;;11.45;5.03;;;640.70;2432.00;;;;;;6247093;23;20000;-85
2022/06/30 06:44:01;;;;;;;14.75;5.05;;;640.50;2432.00;;;;;;6247473;23;20334;-85
2022/06/30 06:46:44;;;;;;;;;;;;;;;;;;;;;
2022/06/30 06:49:10;;;;;;;11.23;5.35;;;640.70;2432.00;;;;;;6248372;22;20091;-85
2022/06/30 06:51:36;;;;;;;8.20;5.05;;;640.90;2432.00;;;;;;6247171;23;20039;-83
2022/06/30 06:54:02;;;;;;;7.82;4.90;;;665.60;2432.00;;;;;;6247574;23;20008;-83
2022/06/30 06:56:28;;;;;;;8.38;5.25;;;665.80;2432.00;;;;;;6247795;23;20066;-83
2022/06/30 06:58:54;;;;;;;8.52;4.95;;;666.00;2432.00;;;;;;6247530;23;20008;-82
2022/06/30 07:01:20;;;;;;;9.60;4.32;;;666.20;2432.00;;;;;;6246972;23;20030;-85
2022/06/30 07:03:49;;;;;;;8.35;4.72;;;666.30;2432.00;;;;;;6247510;23;20007;-86
2022/06/30 07:06:18;;;;;;;7.63;5.00;;;691.30;2432.00;;;;;;6247397;23;19996;-82
2022/06/30 07:08:43;;;;;;;8.90;5.15;;;691.30;2432.00;;;;;;6247659;23;20087;-83
2022/06/30 07:11:09;;;;;;;9.02;5.25;;;691.50;2432.00;;;;;;6247325;23;20028;-84
2022/06/30 07:13:35;;;;;;;7.35;5.13;;;691.40;2432.00;;;;;;6247501;23;20297;-85
2022/06/30 07:16:02;;;;;;;6.75;4.78;;;691.40;2432.00;;;;;;6247100;23;20001;-85
2022/06/30 07:18:28;;;;;;;8.18;6.10;;;691.50;2432.00;;;;;;6247678;23;20011;-86
2022/06/30 07:20:55;;;;;;;14.63;8.45;;;691.40;2432.00;;;;;;6247745;23;20008;-85
2022/06/30 07:23:21;;;;;;;13.57;11.43;;;691.60;2432.00;;;;;;6247750;23;20028;-88
2022/06/30 07:25:47;;;;;;;7.55;5.57;;;;;;;;;;6248094;23;20027;-86
2022/06/30 07:28:14;;;;;;;6.93;5.55;;;691.90;2432.00;;;;;;6247897;23;20066;-85
2022/06/30 07:30:43;;;;;;;11.70;4.93;;;692.10;2432.00;;;;;;6247648;23;20023;-87
2022/06/30 07:33:10;;;;;;;8.88;7.50;;;692.00;2432.00;;;;;;6247178;23;20057;-87
2022/06/30 07:35:35;;;;;;;10.07;6.30;;;716.90;2432.00;;;;;;6247667;23;20004;-87
2022/06/30 07:38:01;;;;;;;10.10;5.72;;;716.90;2432.00;;;;;;6246883;23;20438;-86
2022/06/30 07:40:28;;;;;;;11.88;8.55;;;;;;;;;;6247642;23;20325;-86
2022/06/30 07:42:55;;;;;;;10.05;5.93;;;717.40;2432.00;;;;;;6249306;23;20008;-83
2022/06/30 07:45:22;;;;;;;11.30;7.57;;;717.50;2432.00;;;;;;6266902;23;20000;-84
2022/06/30 07:47:49;;;;;;;13.57;7.10;;;717.60;2432.00;;;;;;6267184;23;20007;-84
2022/06/30 07:50:17;;;;;;;9.85;7.13;;;742.40;2432.00;;;;;;6265564;23;20079;-86
2022/06/30 07:52:46;;;;;;;10.40;6.18;;;742.50;2432.00;;;;;;6250266;23;20012;-89
2022/06/30 07:55:12;;;;;;;10.27;6.57;;;742.70;2432.00;;;;;;6247633;23;20070;-89
2022/06/30 07:57:45;;;;;;;8.65;5.45;;;742.70;2432.00;;;;;;6247227;23;20079;-87
2022/06/30 08:00:12;;;;;;;5.85;4.80;;;742.80;2432.00;;;;;;6246641;23;20004;-89
2022/06/30 08:02:39;;;;;;;8.80;6.53;;;743.30;2432.00;;;;;;6246989;23;20004;-88
2022/06/30 08:05:06;;;;;;;6.63;5.18;;;742.80;2432.00;;;;;;6247153;23;20004;-87
2022/06/30 08:07:33;;;;;;;7.30;5.10;;;743.00;2432.00;;;;;;6247193;23;20026;-88
2022/06/30 08:10:00;;;;;;;11.27;6.40;;;743.30;2406.40;;;;;;6247180;23;20000;-87
2022/06/30 08:12:26;;;;;;;6.28;4.50;;;768.00;2406.40;;;;;;6246865;23;20008;-88
2022/06/30 08:14:52;;;;;;;6.28;4.75;;;768.10;2355.20;;;;;;6246664;23;20008;-86
2022/06/30 08:17:19;;;;;;;8.82;5.55;;;768.30;2355.20;;;;;;6246828;23;20314;-86
2022/06/30 08:19:48;;;;;;;14.48;12.55;;;768.40;2329.60;;;;;;6246051;23;20103;-86
2022/06/30 08:22:14;;;;;;;13.40;11.55;;;768.50;2304.00;;;;;;6245922;23;20020;-83
2022/06/30 08:24:40;;;;;;;16.23;9.35;;;768.60;2304.00;;;;;;6246435;23;20043;-85
2022/06/30 08:27:06;;;;;;;9.73;5.72;;;768.70;2252.80;;;;;;6246792;23;20002;-87
2022/06/30 08:29:32;;;;;;;10.85;6.97;;;768.60;2227.20;;;;;;6246566;23;20011;-84
2022/06/30 08:32:00;;;;;;;10.85;8.35;;;793.60;2252.80;;;;;;6244919;23;20000;-85
2022/06/30 08:34:26;;;;;;;11.05;8.13;;;793.80;2278.40;;;;;;6245744;23;20001;-83
2022/06/30 08:36:51;;;;;;;7.93;5.65;;;793.90;2252.80;;;;;;6246062;23;20092;-83
2022/06/30 08:42:02;;;;;;;6.32;4.75;;;794.30;2227.20;;;;;;6247545;23;20035;-85
2022/06/30 08:44:32;;;;;;;8.30;6.65;;;794.20;2176.00;;;;;;6246435;23;20000;-84
2022/06/30 08:46:58;;;;;;;8.63;6.82;;;794.50;2176.00;;;;;;6246190;23;20000;-85
2022/06/30 08:49:24;;;;;;;6.13;4.47;;;819.30;2150.40;;;;;;6246282;23;20000;-83
2022/06/30 08:51:53;;;;;;;7.82;4.53;;;819.30;2150.40;;;;;;6246081;23;20008;-84
2022/06/30 08:54:21;;;;;;;9.15;4.95;;;819.40;2124.80;;;;;;6246265;23;20456;-83
2022/06/30 08:56:50;;;;;;;9.30;5.20;;;819.30;2124.80;;;;;;6246664;23;20011;-84
2022/06/30 08:59:17;;;;;;;8.93;5.85;;;819.50;2099.20;;;;;;6247053;23;20004;-83
2022/06/30 09:01:43;;;;;;;6.75;5.05;;;819.60;2099.20;;;;;;6245387;23;20337;-83
2022/06/30 09:04:13;;;;;;;13.82;10.15;;;819.80;2099.20;;;;;;6246084;23;19996;-83
2022/06/30 09:06:43;;;;;;;16.67;7.53;;;820.00;2099.20;;;;;;6247226;23;20010;-87
2022/06/30 09:09:09;;;;;;;6.50;5.80;;;820.00;2124.80;;;;;;6247125;23;20023;-84
2022/06/30 09:11:50;;;;;;;9.75;8.48;;;845.10;2124.80;;;;;;6245729;23;20078;-83
2022/06/30 09:14:32;;;;;;;11.20;8.30;;;844.80;2124.80;;;;;;6245600;23;20004;-85
2022/06/30 09:16:58;;;;;;;20.33;13.17;;;844.90;2073.60;;;;;;6245695;23;19996;-84
2022/06/30 09:19:24;;;;;;;9.23;5.63;;;845.20;2099.20;;;;;;6246009;23;20007;-84
2022/06/30 09:22:07;;;;;;;11.23;5.88;;;845.20;2048.00;;;;;;6245078;23;20016;-83
2022/06/30 09:24:34;;;;;;;15.50;11.95;;;845.00;2022.40;;;;;;6246071;23;20541;-84
2022/06/30 09:27:19;;;;;;;13.00;5.65;;;845.20;2022.40;;;;;;6246084;23;19997;-85
2022/06/30 09:30:07;;;;;;;10.82;5.70;;;845.40;2048.00;;;;;;6245375;23;20004;-86
2022/06/30 09:32:56;;;;;;;10.13;4.82;;;845.50;2022.40;;;;;;6246096;23;20095;-86
2022/06/30 09:35:28;;;;;;;6.30;4.45;;;845.70;1996.80;;;;;;6245832;23;20005;-85
2022/06/30 09:38:12;;;;;;;5.68;4.32;;;870.40;1971.20;;;;;;6246199;23;20000;-85
2022/06/30 09:40:38;;;;;;;10.48;4.65;;;870.50;1971.20;;;;;;6245623;23;20007;-84
2022/06/30 09:43:05;;;;;;;7.63;4.80;;;870.70;1996.80;;;;;;6246187;23;20109;-85
2022/06/30 09:45:40;;;;;;;12.88;6.18;;;870.80;1971.20;;;;;;6246465;23;20004;-86
2022/06/30 09:48:08;;;;;;;9.63;4.75;;;870.90;1971.20;;;;;;6246891;23;20477;-88
2022/06/30 09:50:34;;;;;;;10.07;4.80;;;871.00;1920.00;;;;;;6245998;23;20000;-84
2022/06/30 09:53:09;;;;;;;8.45;4.72;;;871.10;1945.60;;;;;;6246049;23;20008;-86
2022/06/30 09:55:41;;;;;;;7.55;4.40;;;871.20;1920.00;;;;;;6246054;23;20433;-86
2022/06/30 09:58:07;;;;;;;6.85;4.63;;;871.20;1920.00;;;;;;6246017;23;20004;-86
2022/06/30 10:00:48;;;;;;;6.00;4.05;;;871.30;1920.00;;;;;;6246006;23;20075;-86
2022/06/30 10:03:16;;;;;;;8.57;4.78;;;871.30;1894.40;;;;;;6246075;23;20065;-86
2022/06/30 10:05:44;;;;;;;5.72;5.03;;;896.00;1894.40;;;;;;6246068;23;20000;-84
2022/06/30 10:08:14;;;;;;;7.72;4.93;;;896.10;1894.40;;;;;;6245936;23;20322;-84
2022/06/30 10:10:44;;;;;;;5.10;4.10;;;896.30;1894.40;;;;;;6245972;23;20031;-85
2022/06/30 10:13:17;;;;;;;6.80;4.25;;;896.10;1868.80;;;;;;6245907;23;20461;-85
2022/06/30 10:15:54;;;;;;;7.85;4.20;;;896.30;1868.80;;;;;;6246121;23;20011;-85
2022/06/30 10:18:25;;;;;;;7.82;4.13;;;896.50;1843.20;;;;;;6245912;23;20035;-85
2022/06/30 10:20:51;;;;;;;9.52;6.10;;;896.50;1843.20;;;;;;6245503;23;20367;-85
2022/06/30 10:23:21;;;;;;;8.75;4.20;;;896.70;1843.20;;;;;;6245757;23;20306;-85
2022/06/30 10:25:48;;;;;;;11.48;3.70;;;896.80;1817.60;;;;;;6246422;23;20414;-85
2022/06/30 10:28:20;;;;;;;8.85;4.55;;;896.90;1817.60;;;;;;6246730;23;20032;-85
2022/06/30 10:30:54;;;;;;;6.00;4.32;;;896.80;1843.20;;;;;;6260022;22;19993;-83
2022/06/30 10:33:26;;;;;;;10.70;4.07;;;896.90;1817.60;;;;;;6269698;22;20005;-86
2022/06/30 10:36:05;;;;;;;13.60;4.25;;;896.90;1792.00;;;;;;6246822;23;20078;-83
2022/06/30 10:38:45;;;;;;;8.23;4.10;;;921.80;1843.20;;;;;;6247476;23;20436;-86
2022/06/30 10:41:14;;;;;;;8.00;4.85;;;921.90;1792.00;;;;;;6246758;23;20418;-86
2022/06/30 10:44:05;;;;;;;7.22;3.92;;;922.00;1817.60;;;;;;6245333;23;20311;-84
2022/06/30 10:46:34;;;;;;;10.32;4.60;;;922.10;1792.00;;;;;;6245105;23;20430;-84
2022/06/30 10:49:07;;;;;;;7.22;4.30;;;922.00;1766.40;;;;;;6245234;23;20003;-85
2022/06/30 10:51:35;;;;;;;6.65;4.25;;;921.80;1792.00;;;;;;6245306;23;20082;-84
2022/06/30 10:54:01;;;;;;;7.07;4.40;;;921.70;1792.00;;;;;;6249664;23;20035;-85
2022/06/30 10:56:48;;;;;;;6.30;3.88;;;921.70;1766.40;;;;;;6253179;23;20003;-85
2022/06/30 10:59:15;;;;;;;6.07;3.63;;;921.90;1740.80;;;;;;6246215;23;20000;-86
2022/06/30 11:02:13;;;;;;;5.80;3.85;;;922.00;1740.80;;;;;;6245585;23;20004;-85
2022/06/30 11:04:44;;;;;;;6.63;4.10;;;922.10;1766.40;;;;;;6245459;23;20011;-87
2022/06/30 11:07:12;;;;;;;9.52;3.88;;;922.50;1740.80;;;;;;6245640;23;20007;-87
2022/06/30 11:09:44;;;;;;;5.15;3.67;;;922.10;1740.80;;;;;;6245448;23;20011;-87
2022/06/30 11:12:14;;;;;;;9.07;4.70;;;922.30;1740.80;;;;;;6245221;23;20004;-85
2022/06/30 11:14:54;;;;;;;6.18;4.43;;;922.50;1740.80;;;;;;6245369;23;20007;-87
2022/06/30 11:17:23;;;;;;;7.65;3.95;;;947.30;1766.40;;;;;;6245121;23;20008;-87
2022/06/30 11:20:00;;;;;;;7.53;4.03;;;947.60;1715.20;;;;;;6245011;23;20062;-88
2022/06/30 11:22:29;;;;;;;8.15;3.45;;;947.20;1715.20;;;;;;6245226;23;20012;-87
2022/06/30 11:25:04;;;;;;;7.60;3.83;;;947.50;1715.20;;;;;;6245120;23;20008;-87
2022/06/30 11:27:32;;;;;;;7.25;4.63;;;947.20;1715.20;;;;;;6246980;23;20346;-84
2022/06/30 11:29:59;;;;;;;7.75;5.47;;;922.50;1740.80;;;;;;6247173;23;20008;-87
2022/06/30 11:32:26;;;;;;;6.10;3.80;;;947.50;1740.80;;;;;;6247031;23;20421;-87
2022/06/30 11:34:52;;;;;;;5.22;3.30;;;947.20;1715.20;;;;;;6247426;23;20322;-87
2022/06/30 11:37:28;;;;;;;8.52;3.92;;;948.10;1689.60;;;;;;6246832;23;20011;-87
2022/06/30 11:40:01;;;;;;;8.05;3.88;;;947.90;1664.00;;;;;;6247389;23;20440;-87
2022/06/30 11:42:27;;;;;;;8.23;4.25;;;947.70;1664.00;;;;;;6247125;23;20019;-87
2022/06/30 11:44:54;;;;;;;7.32;3.75;;;947.60;1689.60;;;;;;6247254;23;20071;-86
2022/06/30 11:47:22;;;;;;;7.70;3.80;;;948.10;1664.00;;;;;;6247465;23;20050;-87
2022/06/30 11:49:57;;;;;;;6.53;3.97;;;972.80;1689.60;;;;;;6247085;23;20004;-87
2022/06/30 11:52:28;;;;;;;7.18;4.03;;;948.10;1664.00;;;;;;6247183;23;20059;-87
2022/06/30 11:54:57;;;;;;;9.23;4.10;;;947.90;1638.40;;;;;;6247169;23;20004;-86
2022/06/30 11:57:29;;;;;;;10.43;4.15;;;948.00;1638.40;;;;;;6247401;23;19997;-86
2022/06/30 11:59:57;;;;;;;8.38;3.83;;;;;;;;;;6247212;23;20010;-87
2022/06/30 12:02:23;;;;;;;8.63;4.43;;;973.10;1689.60;;;;;;6246916;23;20019;-86
2022/06/30 12:04:54;;;;;;;7.70;4.45;;;973.20;1689.60;;;;;;6246975;23;20054;-87
2022/06/30 12:07:21;;;;;;;7.13;3.60;;;973.40;1664.00;;;;;;6246905;23;20295;-87
2022/06/30 12:09:48;;;;;;;8.32;4.10;;;973.60;1664.00;;;;;;6246840;23;20083;-88
2022/06/30 12:12:18;;;;;;;7.38;4.05;;;973.20;1612.80;;;;;;6247174;23;20005;-87
2022/06/30 12:14:45;;;;;;;5.65;4.00;;;973.10;1612.80;;;;;;6246724;23;20125;-86
2022/06/30 12:17:13;;;;;;;7.75;3.85;;;973.40;1638.40;;;;;;6247113;23;20094;-86
2022/06/30 12:19:43;;;;;;;6.75;3.80;;;973.60;1638.40;;;;;;6246671;23;20002;-86
2022/06/30 12:22:09;;;;;;;4.90;3.23;;;973.70;1638.40;;;;;;6246329;23;20016;-86
2022/06/30 12:24:38;;;;;;;7.40;3.70;;;973.60;1638.40;;;;;;6246827;23;20381;-86
2022/06/30 12:27:04;;;;;;;9.02;3.70;;;998.60;1638.40;;;;;;6246563;23;20000;-87
2022/06/30 12:29:31;;;;;;;6.53;3.50;;;998.40;1638.40;;;;;;6246846;23;20011;-86
2022/06/30 12:32:06;;;;;;;7.97;3.60;;;999.30;1638.40;;;;;;6247136;23;20000;-88
2022/06/30 12:34:47;;;;;;;8.18;3.60;;;998.70;1612.80;;;;;;6246745;23;20000;-87
2022/06/30 12:37:13;;;;;;;9.23;3.80;;;998.60;1587.20;;;;;;6247036;23;20314;-87
2022/06/30 12:39:45;;;;;;;7.18;3.70;;;998.40;1587.20;;;;;;6246908;23;20000;-87
2022/06/30 12:42:11;;;;;;;4.95;3.60;;;998.40;1561.60;;;;;;6246805;23;20083;-87
2022/06/30 12:44:40;;;;;;;8.85;3.65;;;998.40;1561.60;;;;;;6246844;23;20000;-86
2022/06/30 12:47:08;;;;;;;6.38;3.95;;;998.70;1587.20;;;;;;6246946;23;20007;-87
2022/06/30 12:49:36;;;;;;;5.63;3.58;;;998.70;1561.60;;;;;;6246591;23;20049;-86
2022/06/30 12:52:16;;;;;;;5.50;3.30;;;998.80;1536.00;;;;;;6246548;23;20015;-86
2022/06/30 12:54:54;;;;;;;7.63;3.45;;;998.80;1587.20;;;;;;6246436;23;20015;-86